SJV810 WIII-WIEE
Flight info
| Callsign | SJV810 |
|---|---|
| Flight time | 1h 15m |
| Altitude | 34000 |
| Route | GUDBA T6 LEBEG |
| Aircraft | A320/M-SDE3FGHIRWY/LB1 |
Departure
| Time | 2026-05-08 00:08 |
|---|---|
| Airport | Soekarno-Hatta International Airport (WIII) |
Arrival
| Time | 2026-05-08 01:23 |
|---|---|
| Airport | Minangkabau International Airport (WIEE) |
| Time | Latitude | Longitude | Altitude | Speed | Heading |
|---|---|---|---|---|---|
| 2026-05-07 23:46 | -6.11990 | 106.65273 | 47 ft | 0 kts | 219° |
| 2026-05-07 23:57 | -6.11983 | 106.65278 | 47 ft | 2 kts | 219° |
| 2026-05-07 23:57 | -6.11971 | 106.65287 | 47 ft | 2 kts | 219° |
| 2026-05-07 23:57 | -6.11960 | 106.65297 | 47 ft | 2 kts | 219° |
| 2026-05-07 23:58 | -6.11948 | 106.65307 | 47 ft | 2 kts | 219° |
| 2026-05-07 23:58 | -6.11937 | 106.65317 | 47 ft | 2 kts | 246° |
| 2026-05-07 23:58 | -6.11934 | 106.65332 | 47 ft | 2 kts | 282° |
| 2026-05-07 23:58 | -6.11939 | 106.65344 | 47 ft | 1 kts | 312° |
| 2026-05-07 23:59 | -6.11949 | 106.65354 | 47 ft | 2 kts | 308° |
| 2026-05-07 23:59 | -6.11954 | 106.65359 | 47 ft | 0 kts | 308° |
| 2026-05-08 00:01 | -6.11953 | 106.65359 | 47 ft | 0 kts | 308° |
| 2026-05-08 00:02 | -6.11935 | 106.65336 | 47 ft | 8 kts | 308° |
| 2026-05-08 00:02 | -6.11880 | 106.65273 | 47 ft | 14 kts | 318° |
| 2026-05-08 00:02 | -6.11785 | 106.65222 | 47 ft | 14 kts | 7° |
| 2026-05-08 00:02 | -6.11728 | 106.65310 | 47 ft | 16 kts | 68° |
| 2026-05-08 00:03 | -6.11682 | 106.65424 | 47 ft | 18 kts | 68° |
| 2026-05-08 00:03 | -6.11633 | 106.65547 | 47 ft | 19 kts | 68° |
| 2026-05-08 00:03 | -6.11581 | 106.65677 | 47 ft | 19 kts | 68° |
| 2026-05-08 00:03 | -6.11530 | 106.65807 | 47 ft | 19 kts | 68° |
| 2026-05-08 00:04 | -6.11478 | 106.65937 | 47 ft | 19 kts | 68° |
| 2026-05-08 00:04 | -6.11425 | 106.66070 | 47 ft | 20 kts | 68° |
| 2026-05-08 00:04 | -6.11373 | 106.66201 | 47 ft | 20 kts | 68° |
| 2026-05-08 00:04 | -6.11320 | 106.66335 | 47 ft | 20 kts | 68° |
| 2026-05-08 00:05 | -6.11267 | 106.66467 | 47 ft | 20 kts | 68° |
| 2026-05-08 00:05 | -6.11214 | 106.66601 | 47 ft | 20 kts | 68° |
| 2026-05-08 00:05 | -6.11161 | 106.66734 | 47 ft | 20 kts | 68° |
| 2026-05-08 00:05 | -6.11108 | 106.66868 | 47 ft | 20 kts | 68° |
| 2026-05-08 00:06 | -6.11045 | 106.66965 | 47 ft | 8 kts | 25° |
| 2026-05-08 00:06 | -6.11038 | 106.66968 | 47 ft | 0 kts | 17° |
| 2026-05-08 00:06 | -6.11030 | 106.66969 | 47 ft | 3 kts | 15° |
| 2026-05-08 00:07 | -6.10973 | 106.66957 | 47 ft | 13 kts | 324° |
| 2026-05-08 00:07 | -6.10916 | 106.66888 | 47 ft | 9 kts | 308° |
| 2026-05-08 00:07 | -6.10919 | 106.66845 | 47 ft | 4 kts | 249° |
| 2026-05-08 00:07 | -6.10992 | 106.66664 | 47 ft | 64 kts | 248° |
| 2026-05-08 00:08 | -6.11251 | 106.66017 | 47 ft | 130 kts | 248° |
| 2026-05-08 00:08 | -6.11664 | 106.64980 | 78 ft | 180 kts | 248° |
| 2026-05-08 00:08 | -6.12134 | 106.63775 | 674 ft | 183 kts | 248° |
| 2026-05-08 00:08 | -6.12555 | 106.62579 | 1378 ft | 184 kts | 260° |
| 2026-05-08 00:09 | -6.12406 | 106.61295 | 2012 ft | 186 kts | 289° |
| 2026-05-08 00:09 | -6.11944 | 106.60013 | 2440 ft | 201 kts | 291° |
| 2026-05-08 00:09 | -6.11426 | 106.58640 | 2853 ft | 218 kts | 291° |
| 2026-05-08 00:09 | -6.10874 | 106.57107 | 3233 ft | 240 kts | 290° |
| 2026-05-08 00:10 | -6.10294 | 106.55421 | 3644 ft | 261 kts | 289° |
| 2026-05-08 00:10 | -6.09686 | 106.53616 | 4153 ft | 277 kts | 289° |
| 2026-05-08 00:10 | -6.09056 | 106.51726 | 4870 ft | 285 kts | 289° |
| 2026-05-08 00:10 | -6.08412 | 106.49809 | 5688 ft | 287 kts | 290° |
| 2026-05-08 00:11 | -6.07640 | 106.47931 | 6439 ft | 291 kts | 296° |
| 2026-05-08 00:11 | -6.06685 | 106.46098 | 7180 ft | 295 kts | 299° |
| 2026-05-08 00:11 | -6.05666 | 106.44270 | 7961 ft | 297 kts | 300° |
| 2026-05-08 00:11 | -6.04637 | 106.42431 | 8690 ft | 300 kts | 300° |
| 2026-05-08 00:12 | -6.03600 | 106.40577 | 9399 ft | 304 kts | 300° |
| 2026-05-08 00:12 | -6.02552 | 106.38694 | 10082 ft | 307 kts | 300° |
| 2026-05-08 00:12 | -6.01474 | 106.36755 | 10613 ft | 317 kts | 300° |
| 2026-05-08 00:12 | -6.00367 | 106.34766 | 10906 ft | 334 kts | 300° |
| 2026-05-08 00:13 | -5.99222 | 106.32693 | 11178 ft | 350 kts | 300° |
| 2026-05-08 00:13 | -5.98004 | 106.30486 | 11441 ft | 365 kts | 300° |
| 2026-05-08 00:13 | -5.96716 | 106.28160 | 11716 ft | 380 kts | 300° |
| 2026-05-08 00:13 | -5.95410 | 106.25803 | 12214 ft | 385 kts | 300° |
| 2026-05-08 00:14 | -5.94078 | 106.23396 | 12802 ft | 387 kts | 300° |
| 2026-05-08 00:14 | -5.92758 | 106.21016 | 13353 ft | 390 kts | 300° |
| 2026-05-08 00:14 | -5.91405 | 106.18581 | 13898 ft | 393 kts | 300° |
| 2026-05-08 00:14 | -5.90060 | 106.16158 | 14420 ft | 396 kts | 300° |
| 2026-05-08 00:15 | -5.88690 | 106.13708 | 14896 ft | 400 kts | 301° |
| 2026-05-08 00:15 | -5.87282 | 106.11198 | 15367 ft | 404 kts | 300° |
| 2026-05-08 00:15 | -5.85893 | 106.08720 | 15835 ft | 407 kts | 300° |
| 2026-05-08 00:15 | -5.84483 | 106.06194 | 16296 ft | 410 kts | 300° |
| 2026-05-08 00:16 | -5.83064 | 106.03647 | 16749 ft | 413 kts | 300° |
| 2026-05-08 00:16 | -5.81642 | 106.01092 | 17198 ft | 416 kts | 300° |
| 2026-05-08 00:16 | -5.80205 | 105.98505 | 17630 ft | 419 kts | 300° |
| 2026-05-08 00:16 | -5.78773 | 105.95929 | 18063 ft | 421 kts | 300° |
| 2026-05-08 00:17 | -5.77321 | 105.93315 | 18523 ft | 423 kts | 300° |
| 2026-05-08 00:17 | -5.75862 | 105.90694 | 18972 ft | 424 kts | 300° |
| 2026-05-08 00:17 | -5.74400 | 105.88065 | 19400 ft | 426 kts | 301° |
| 2026-05-08 00:17 | -5.72934 | 105.85428 | 19825 ft | 428 kts | 300° |
| 2026-05-08 00:18 | -5.71461 | 105.82778 | 20244 ft | 430 kts | 301° |
| 2026-05-08 00:18 | -5.69963 | 105.80084 | 20656 ft | 432 kts | 300° |
| 2026-05-08 00:18 | -5.68479 | 105.77419 | 20859 ft | 432 kts | 300° |
| 2026-05-08 00:18 | -5.66995 | 105.74748 | 20873 ft | 431 kts | 301° |
| 2026-05-08 00:19 | -5.65512 | 105.72078 | 20878 ft | 431 kts | 301° |
| 2026-05-08 00:19 | -5.64034 | 105.69419 | 20873 ft | 428 kts | 301° |
| 2026-05-08 00:19 | -5.62564 | 105.66773 | 20871 ft | 425 kts | 301° |
| 2026-05-08 00:19 | -5.61115 | 105.64167 | 20868 ft | 424 kts | 301° |
| 2026-05-08 00:20 | -5.59647 | 105.61529 | 20865 ft | 424 kts | 301° |
| 2026-05-08 00:20 | -5.58199 | 105.58929 | 20863 ft | 424 kts | 301° |
| 2026-05-08 00:20 | -5.56694 | 105.56321 | 20863 ft | 423 kts | 303° |
| 2026-05-08 00:20 | -5.55053 | 105.53817 | 20888 ft | 425 kts | 307° |
| 2026-05-08 00:21 | -5.53280 | 105.51369 | 21221 ft | 428 kts | 308° |
| 2026-05-08 00:21 | -5.51498 | 105.48938 | 21711 ft | 428 kts | 308° |
| 2026-05-08 00:21 | -5.49699 | 105.46487 | 22159 ft | 428 kts | 308° |
| 2026-05-08 00:21 | -5.47909 | 105.44045 | 22575 ft | 429 kts | 308° |
| 2026-05-08 00:22 | -5.46117 | 105.41598 | 22945 ft | 432 kts | 308° |
| 2026-05-08 00:22 | -5.44306 | 105.39124 | 23296 ft | 435 kts | 308° |
| 2026-05-08 00:22 | -5.42471 | 105.36616 | 23639 ft | 438 kts | 308° |
| 2026-05-08 00:22 | -5.40645 | 105.34120 | 23985 ft | 441 kts | 308° |
| 2026-05-08 00:23 | -5.38793 | 105.31574 | 24334 ft | 444 kts | 308° |
| 2026-05-08 00:23 | -5.36934 | 105.29017 | 24675 ft | 446 kts | 308° |
| 2026-05-08 00:23 | -5.35090 | 105.26485 | 25000 ft | 449 kts | 308° |
| 2026-05-08 00:23 | -5.33212 | 105.23912 | 25323 ft | 451 kts | 308° |
| 2026-05-08 00:24 | -5.31296 | 105.21289 | 25650 ft | 454 kts | 308° |
| 2026-05-08 00:24 | -5.29397 | 105.18691 | 25972 ft | 456 kts | 308° |
| 2026-05-08 00:24 | -5.27513 | 105.16114 | 26278 ft | 458 kts | 308° |
| 2026-05-08 00:24 | -5.25574 | 105.13465 | 26579 ft | 461 kts | 308° |
| 2026-05-08 00:25 | -5.23658 | 105.10845 | 26868 ft | 463 kts | 308° |
| 2026-05-08 00:25 | -5.21706 | 105.08182 | 27149 ft | 465 kts | 308° |
| 2026-05-08 00:25 | -5.19775 | 105.05544 | 27420 ft | 468 kts | 308° |
| 2026-05-08 00:25 | -5.17802 | 105.02850 | 27684 ft | 470 kts | 308° |
| 2026-05-08 00:26 | -5.15826 | 105.00151 | 27937 ft | 472 kts | 308° |
| 2026-05-08 00:26 | -5.13862 | 104.97471 | 28183 ft | 474 kts | 308° |
| 2026-05-08 00:26 | -5.11872 | 104.94753 | 28418 ft | 476 kts | 308° |
| 2026-05-08 00:26 | -5.09888 | 104.92046 | 28641 ft | 477 kts | 308° |
| 2026-05-08 00:27 | -5.07899 | 104.89330 | 28862 ft | 479 kts | 308° |
| 2026-05-08 00:27 | -5.05904 | 104.86607 | 29082 ft | 480 kts | 308° |
| 2026-05-08 00:27 | -5.03875 | 104.83839 | 29350 ft | 480 kts | 308° |
| 2026-05-08 00:27 | -5.01882 | 104.81119 | 29668 ft | 478 kts | 308° |
| 2026-05-08 00:28 | -4.99888 | 104.78400 | 29984 ft | 477 kts | 308° |
| 2026-05-08 00:28 | -4.97886 | 104.75668 | 30288 ft | 475 kts | 308° |
| 2026-05-08 00:28 | -4.95899 | 104.72958 | 30575 ft | 474 kts | 308° |
| 2026-05-08 00:28 | -4.93930 | 104.70272 | 30869 ft | 473 kts | 308° |
| 2026-05-08 00:29 | -4.91965 | 104.67595 | 31157 ft | 472 kts | 308° |
| 2026-05-08 00:29 | -4.90007 | 104.64922 | 31432 ft | 470 kts | 308° |
| 2026-05-08 00:29 | -4.88012 | 104.62214 | 31708 ft | 469 kts | 308° |
| 2026-05-08 00:29 | -4.86047 | 104.59555 | 31986 ft | 468 kts | 308° |
| 2026-05-08 00:30 | -4.84083 | 104.56888 | 32251 ft | 468 kts | 308° |
| 2026-05-08 00:30 | -4.82151 | 104.54257 | 32461 ft | 468 kts | 308° |
| 2026-05-08 00:30 | -4.80174 | 104.51570 | 32655 ft | 469 kts | 308° |
| 2026-05-08 00:30 | -4.78202 | 104.48897 | 32873 ft | 469 kts | 308° |
| 2026-05-08 00:31 | -4.76246 | 104.46241 | 33101 ft | 469 kts | 308° |
| 2026-05-08 00:31 | -4.74282 | 104.43573 | 33326 ft | 470 kts | 308° |
| 2026-05-08 00:31 | -4.72316 | 104.40900 | 33542 ft | 470 kts | 308° |
| 2026-05-08 00:31 | -4.70346 | 104.38216 | 33751 ft | 470 kts | 308° |
| 2026-05-08 00:32 | -4.68395 | 104.35560 | 33922 ft | 471 kts | 308° |
| 2026-05-08 00:32 | -4.66416 | 104.32860 | 33925 ft | 472 kts | 308° |
| 2026-05-08 00:32 | -4.62482 | 104.27470 | 33929 ft | 472 kts | 308° |
| 2026-05-08 00:33 | -4.58563 | 104.22117 | 33931 ft | 472 kts | 308° |
| 2026-05-08 00:33 | -4.54629 | 104.16757 | 33930 ft | 472 kts | 308° |
| 2026-05-08 00:34 | -4.50687 | 104.11389 | 33928 ft | 472 kts | 308° |
| 2026-05-08 00:34 | -4.46742 | 104.06020 | 33917 ft | 472 kts | 308° |
| 2026-05-08 00:35 | -4.42805 | 104.00665 | 33921 ft | 471 kts | 308° |
| 2026-05-08 00:35 | -4.38864 | 103.95306 | 33932 ft | 471 kts | 308° |
| 2026-05-08 00:36 | -4.34919 | 103.89942 | 33944 ft | 472 kts | 308° |
| 2026-05-08 00:36 | -4.31015 | 103.84637 | 33965 ft | 472 kts | 307° |
| 2026-05-08 00:37 | -4.27080 | 103.79285 | 33985 ft | 472 kts | 308° |
| 2026-05-08 00:38 | -4.21168 | 103.71254 | 34012 ft | 472 kts | 307° |
| 2026-05-08 00:38 | -4.17265 | 103.65950 | 34014 ft | 472 kts | 307° |
| 2026-05-08 00:39 | -4.13329 | 103.60609 | 34019 ft | 472 kts | 307° |
| 2026-05-08 00:39 | -4.09407 | 103.55282 | 34013 ft | 472 kts | 307° |
| 2026-05-08 00:40 | -4.05487 | 103.49957 | 34001 ft | 472 kts | 307° |
| 2026-05-08 00:40 | -4.01540 | 103.44601 | 33998 ft | 472 kts | 307° |
| 2026-05-08 00:41 | -3.97626 | 103.39288 | 33992 ft | 472 kts | 307° |
| 2026-05-08 00:41 | -3.93688 | 103.33943 | 33992 ft | 472 kts | 307° |
| 2026-05-08 00:42 | -3.89786 | 103.28617 | 33997 ft | 472 kts | 307° |
| 2026-05-08 00:42 | -3.85825 | 103.23258 | 33991 ft | 472 kts | 307° |
| 2026-05-08 00:43 | -3.81886 | 103.17940 | 33989 ft | 472 kts | 307° |
| 2026-05-08 00:43 | -3.77933 | 103.12588 | 33989 ft | 472 kts | 307° |
| 2026-05-08 00:44 | -3.74014 | 103.07277 | 33988 ft | 472 kts | 307° |
| 2026-05-08 00:44 | -3.70073 | 103.01934 | 33984 ft | 472 kts | 307° |
| 2026-05-08 00:45 | -3.66146 | 102.96611 | 33984 ft | 472 kts | 307° |
| 2026-05-08 00:45 | -3.62192 | 102.91253 | 33975 ft | 472 kts | 307° |
| 2026-05-08 00:46 | -3.58258 | 102.85923 | 33981 ft | 472 kts | 307° |
| 2026-05-08 00:46 | -3.54316 | 102.80582 | 33990 ft | 473 kts | 307° |
| 2026-05-08 00:47 | -3.50389 | 102.75265 | 34002 ft | 473 kts | 307° |
| 2026-05-08 00:47 | -3.46450 | 102.69930 | 34001 ft | 473 kts | 307° |
| 2026-05-08 00:48 | -3.42511 | 102.64593 | 34004 ft | 472 kts | 307° |
| 2026-05-08 00:48 | -3.38580 | 102.59271 | 34010 ft | 472 kts | 307° |
| 2026-05-08 00:49 | -3.34628 | 102.53924 | 34029 ft | 472 kts | 307° |
| 2026-05-08 00:49 | -3.30685 | 102.48588 | 34065 ft | 472 kts | 307° |
| 2026-05-08 00:50 | -3.26763 | 102.43278 | 34086 ft | 473 kts | 307° |
| 2026-05-08 00:50 | -3.22843 | 102.37974 | 34094 ft | 473 kts | 307° |
| 2026-05-08 00:51 | -3.18887 | 102.32614 | 34088 ft | 473 kts | 307° |
| 2026-05-08 00:51 | -3.14962 | 102.27274 | 34081 ft | 473 kts | 307° |
| 2026-05-08 00:52 | -3.11049 | 102.21969 | 34071 ft | 473 kts | 307° |
| 2026-05-08 00:52 | -3.07108 | 102.16634 | 34045 ft | 473 kts | 308° |
| 2026-05-08 00:53 | -3.03182 | 102.11326 | 34022 ft | 472 kts | 308° |
| 2026-05-08 00:53 | -2.99269 | 102.06036 | 34000 ft | 472 kts | 308° |
| 2026-05-08 00:54 | -2.95312 | 102.00686 | 33995 ft | 473 kts | 308° |
| 2026-05-08 00:54 | -2.91359 | 101.95345 | 34010 ft | 474 kts | 308° |
| 2026-05-08 00:55 | -2.87430 | 101.90057 | 34021 ft | 473 kts | 308° |
| 2026-05-08 00:55 | -2.83518 | 101.84804 | 34021 ft | 473 kts | 308° |
| 2026-05-08 00:56 | -2.79564 | 101.79472 | 34015 ft | 473 kts | 307° |
| 2026-05-08 00:56 | -2.75611 | 101.74129 | 34000 ft | 473 kts | 307° |
| 2026-05-08 00:57 | -2.71640 | 101.68759 | 33989 ft | 473 kts | 307° |
| 2026-05-08 00:57 | -2.67685 | 101.63409 | 33981 ft | 473 kts | 307° |
| 2026-05-08 00:58 | -2.63728 | 101.58064 | 33970 ft | 473 kts | 307° |
| 2026-05-08 00:58 | -2.59775 | 101.52744 | 33963 ft | 472 kts | 307° |
| 2026-05-08 00:59 | -2.55792 | 101.47377 | 33956 ft | 473 kts | 307° |
| 2026-05-08 00:59 | -2.51843 | 101.42050 | 33952 ft | 473 kts | 307° |
| 2026-05-08 01:00 | -2.47861 | 101.36678 | 33946 ft | 473 kts | 307° |
| 2026-05-08 01:00 | -2.43944 | 101.31376 | 33938 ft | 472 kts | 307° |
| 2026-05-08 01:01 | -2.40008 | 101.26037 | 33929 ft | 472 kts | 307° |
| 2026-05-08 01:01 | -2.36067 | 101.20706 | 33920 ft | 473 kts | 307° |
| 2026-05-08 01:02 | -2.32132 | 101.15395 | 33916 ft | 473 kts | 307° |
| 2026-05-08 01:02 | -2.28189 | 101.10075 | 33775 ft | 468 kts | 307° |
| 2026-05-08 01:02 | -2.26235 | 101.07440 | 33106 ft | 466 kts | 307° |
| 2026-05-08 01:03 | -2.24282 | 101.04806 | 32010 ft | 472 kts | 307° |
| 2026-05-08 01:03 | -2.22319 | 101.02161 | 30876 ft | 479 kts | 307° |
| 2026-05-08 01:03 | -2.20299 | 100.99435 | 29749 ft | 485 kts | 307° |
| 2026-05-08 01:03 | -2.18293 | 100.96730 | 28664 ft | 490 kts | 307° |
| 2026-05-08 01:04 | -2.16254 | 100.93979 | 27959 ft | 485 kts | 307° |
| 2026-05-08 01:04 | -2.14252 | 100.91277 | 27386 ft | 479 kts | 307° |
| 2026-05-08 01:04 | -2.12276 | 100.88611 | 26842 ft | 473 kts | 307° |
| 2026-05-08 01:04 | -2.10327 | 100.85983 | 26323 ft | 467 kts | 307° |
| 2026-05-08 01:05 | -2.08389 | 100.83368 | 25800 ft | 461 kts | 307° |
| 2026-05-08 01:05 | -2.06487 | 100.80803 | 25257 ft | 457 kts | 307° |
| 2026-05-08 01:05 | -2.04605 | 100.78265 | 24731 ft | 452 kts | 308° |
| 2026-05-08 01:05 | -2.02719 | 100.75723 | 24203 ft | 448 kts | 308° |
| 2026-05-08 01:06 | -2.00865 | 100.73222 | 23683 ft | 444 kts | 308° |
| 2026-05-08 01:06 | -1.99028 | 100.70744 | 23177 ft | 440 kts | 308° |
| 2026-05-08 01:06 | -1.97206 | 100.68288 | 22669 ft | 437 kts | 308° |
| 2026-05-08 01:06 | -1.95423 | 100.65886 | 22169 ft | 434 kts | 308° |
| 2026-05-08 01:07 | -1.93612 | 100.63446 | 21679 ft | 430 kts | 308° |
| 2026-05-08 01:07 | -1.91850 | 100.61072 | 21189 ft | 428 kts | 308° |
| 2026-05-08 01:07 | -1.90009 | 100.58738 | 20671 ft | 423 kts | 316° |
| 2026-05-08 01:07 | -1.87700 | 100.56905 | 20171 ft | 415 kts | 332° |
| 2026-05-08 01:08 | -1.85085 | 100.55785 | 19684 ft | 407 kts | 346° |
| 2026-05-08 01:08 | -1.82320 | 100.55050 | 19203 ft | 403 kts | 348° |
| 2026-05-08 01:08 | -1.79622 | 100.54373 | 18721 ft | 400 kts | 348° |
| 2026-05-08 01:08 | -1.76898 | 100.53686 | 18226 ft | 397 kts | 348° |
| 2026-05-08 01:09 | -1.74225 | 100.53002 | 17745 ft | 394 kts | 347° |
| 2026-05-08 01:09 | -1.71565 | 100.52312 | 17252 ft | 392 kts | 347° |
| 2026-05-08 01:09 | -1.68892 | 100.51616 | 16758 ft | 389 kts | 347° |
| 2026-05-08 01:09 | -1.66267 | 100.50929 | 16267 ft | 386 kts | 347° |
| 2026-05-08 01:10 | -1.63685 | 100.50250 | 15773 ft | 383 kts | 347° |
| 2026-05-08 01:10 | -1.61089 | 100.49568 | 15278 ft | 380 kts | 347° |
| 2026-05-08 01:10 | -1.58543 | 100.48898 | 14798 ft | 378 kts | 347° |
| 2026-05-08 01:10 | -1.55980 | 100.48225 | 14305 ft | 375 kts | 347° |
| 2026-05-08 01:11 | -1.53434 | 100.47555 | 13813 ft | 373 kts | 346° |
| 2026-05-08 01:11 | -1.51042 | 100.46925 | 13355 ft | 370 kts | 346° |
| 2026-05-08 01:11 | -1.48510 | 100.46258 | 12866 ft | 367 kts | 346° |
| 2026-05-08 01:11 | -1.46037 | 100.45606 | 12376 ft | 365 kts | 346° |
| 2026-05-08 01:12 | -1.43561 | 100.44952 | 11875 ft | 363 kts | 346° |
| 2026-05-08 01:12 | -1.41121 | 100.44309 | 11385 ft | 361 kts | 346° |
| 2026-05-08 01:12 | -1.38659 | 100.43659 | 10887 ft | 359 kts | 346° |
| 2026-05-08 01:12 | -1.36240 | 100.43021 | 10426 ft | 356 kts | 346° |
| 2026-05-08 01:13 | -1.33887 | 100.42399 | 10292 ft | 341 kts | 346° |
| 2026-05-08 01:13 | -1.31599 | 100.41794 | 10178 ft | 327 kts | 346° |
| 2026-05-08 01:13 | -1.29435 | 100.41221 | 10088 ft | 314 kts | 346° |
| 2026-05-08 01:13 | -1.27349 | 100.40671 | 10001 ft | 300 kts | 346° |
| 2026-05-08 01:14 | -1.25347 | 100.40143 | 9744 ft | 295 kts | 346° |
| 2026-05-08 01:14 | -1.23353 | 100.39618 | 9399 ft | 294 kts | 346° |
| 2026-05-08 01:14 | -1.21371 | 100.39099 | 9066 ft | 292 kts | 346° |
| 2026-05-08 01:14 | -1.19440 | 100.38419 | 8710 ft | 292 kts | 332° |
| 2026-05-08 01:15 | -1.17810 | 100.37209 | 8359 ft | 291 kts | 315° |
| 2026-05-08 01:15 | -1.16403 | 100.35740 | 8008 ft | 290 kts | 313° |
| 2026-05-08 01:15 | -1.15061 | 100.34269 | 7668 ft | 288 kts | 312° |
| 2026-05-08 01:15 | -1.13692 | 100.32764 | 7313 ft | 287 kts | 312° |
| 2026-05-08 01:16 | -1.12338 | 100.31298 | 6966 ft | 285 kts | 313° |
| 2026-05-08 01:16 | -1.10981 | 100.29849 | 6618 ft | 284 kts | 313° |
| 2026-05-08 01:16 | -1.09623 | 100.28410 | 6276 ft | 282 kts | 313° |
| 2026-05-08 01:16 | -1.08271 | 100.26981 | 5928 ft | 281 kts | 313° |
| 2026-05-08 01:17 | -1.06908 | 100.25581 | 5572 ft | 280 kts | 319° |
| 2026-05-08 01:17 | -1.05199 | 100.24709 | 5202 ft | 278 kts | 351° |
| 2026-05-08 01:17 | -1.03278 | 100.24905 | 4866 ft | 273 kts | 24° |
| 2026-05-08 01:17 | -1.01779 | 100.25993 | 4559 ft | 268 kts | 52° |
| 2026-05-08 01:18 | -1.00967 | 100.27635 | 4305 ft | 261 kts | 75° |
| 2026-05-08 01:18 | -1.00512 | 100.29385 | 4068 ft | 256 kts | 76° |
| 2026-05-08 01:18 | -1.00066 | 100.31097 | 3819 ft | 252 kts | 76° |
| 2026-05-08 01:18 | -0.99602 | 100.32787 | 3566 ft | 248 kts | 75° |
| 2026-05-08 01:19 | -0.99121 | 100.34443 | 3357 ft | 242 kts | 70° |
| 2026-05-08 01:19 | -0.98221 | 100.35780 | 3343 ft | 228 kts | 34° |
| 2026-05-08 01:19 | -0.96716 | 100.36267 | 3359 ft | 228 kts | 358° |
| 2026-05-08 01:19 | -0.95164 | 100.35863 | 3214 ft | 231 kts | 335° |
| 2026-05-08 01:20 | -0.93742 | 100.35133 | 2934 ft | 232 kts | 332° |
| 2026-05-08 01:20 | -0.92291 | 100.34373 | 2632 ft | 232 kts | 334° |
| 2026-05-08 01:20 | -0.90865 | 100.33684 | 2340 ft | 231 kts | 335° |
| 2026-05-08 01:20 | -0.89439 | 100.33028 | 2035 ft | 220 kts | 336° |
| 2026-05-08 01:21 | -0.88074 | 100.32411 | 1831 ft | 202 kts | 336° |
| 2026-05-08 01:21 | -0.86828 | 100.31840 | 1551 ft | 192 kts | 336° |
| 2026-05-08 01:21 | -0.85626 | 100.31284 | 1271 ft | 183 kts | 336° |
| 2026-05-08 01:21 | -0.84503 | 100.30763 | 1022 ft | 173 kts | 336° |
| 2026-05-08 01:22 | -0.83429 | 100.30267 | 823 ft | 160 kts | 336° |
| 2026-05-08 01:22 | -0.82457 | 100.29817 | 601 ft | 147 kts | 336° |
| 2026-05-08 01:22 | -0.81542 | 100.29395 | 408 ft | 141 kts | 337° |
| 2026-05-08 01:22 | -0.80642 | 100.28976 | 226 ft | 141 kts | 338° |
| 2026-05-08 01:23 | -0.79734 | 100.28561 | 68 ft | 141 kts | 338° |
| 2026-05-08 01:23 | -0.78894 | 100.28182 | 47 ft | 113 kts | 334° |
| 2026-05-08 01:23 | -0.78328 | 100.27918 | 57 ft | 64 kts | 335° |
| 2026-05-08 01:23 | -0.78052 | 100.27777 | 59 ft | 25 kts | 322° |
| 2026-05-08 01:24 | -0.77990 | 100.27764 | 60 ft | 5 kts | 129° |
| 2026-05-08 01:24 | -0.78057 | 100.27792 | 59 ft | 16 kts | 155° |
| 2026-05-08 01:24 | -0.78204 | 100.27860 | 59 ft | 27 kts | 155° |
| 2026-05-08 01:24 | -0.78381 | 100.27942 | 56 ft | 27 kts | 155° |
| 2026-05-08 01:25 | -0.78551 | 100.28024 | 53 ft | 24 kts | 153° |
| 2026-05-08 01:25 | -0.78553 | 100.28129 | 53 ft | 16 kts | 67° |
| 2026-05-08 01:25 | -0.78505 | 100.28230 | 53 ft | 16 kts | 65° |
| 2026-05-08 01:25 | -0.78485 | 100.28336 | 52 ft | 16 kts | 125° |
| 2026-05-08 01:26 | -0.78568 | 100.28384 | 52 ft | 11 kts | 155° |
| 2026-05-08 01:26 | -0.78610 | 100.28419 | 51 ft | 7 kts | 66° |
| 2026-05-08 01:26 | -0.78586 | 100.28470 | 51 ft | 5 kts | 65° |
| 2026-05-08 01:26 | -0.78581 | 100.28481 | 51 ft | 0 kts | 65° |